sensor_id;sensor_type;location;lat;lon;timestamp;temperature;humidity
13713;DHT22;6928;50.546;7.120;2023-05-10T00:01:20;13.73;92.10
13713;DHT22;6928;50.546;7.120;2023-05-10T00:03:46;13.87;91.90
13713;DHT22;6928;50.546;7.120;2023-05-10T00:06:13;13.78;91.83
13713;DHT22;6928;50.546;7.120;2023-05-10T00:08:40;13.76;92.29
13713;DHT22;6928;50.546;7.120;2023-05-10T00:11:07;13.52;92.22
13713;DHT22;6928;50.546;7.120;2023-05-10T00:13:35;13.62;92.44
13713;DHT22;6928;50.546;7.120;2023-05-10T00:16:01;13.63;92.61
13713;DHT22;6928;50.546;7.120;2023-05-10T00:18:29;13.67;92.18
13713;DHT22;6928;50.546;7.120;2023-05-10T00:20:55;13.52;92.62
13713;DHT22;6928;50.546;7.120;2023-05-10T00:23:22;13.52;92.38
13713;DHT22;6928;50.546;7.120;2023-05-10T00:25:49;13.45;92.29
13713;DHT22;6928;50.546;7.120;2023-05-10T00:28:16;13.44;93.09
13713;DHT22;6928;50.546;7.120;2023-05-10T00:30:44;13.66;92.22
13713;DHT22;6928;50.546;7.120;2023-05-10T00:33:10;13.61;92.19
13713;DHT22;6928;50.546;7.120;2023-05-10T00:35:37;13.48;92.54
13713;DHT22;6928;50.546;7.120;2023-05-10T00:38:04;13.44;92.21
13713;DHT22;6928;50.546;7.120;2023-05-10T00:40:31;13.46;92.34
13713;DHT22;6928;50.546;7.120;2023-05-10T00:42:58;13.49;91.95
13713;DHT22;6928;50.546;7.120;2023-05-10T00:45:25;13.39;91.95
13713;DHT22;6928;50.546;7.120;2023-05-10T00:47:54;13.51;92.08
13713;DHT22;6928;50.546;7.120;2023-05-10T00:50:21;13.38;92.26
13713;DHT22;6928;50.546;7.120;2023-05-10T00:52:48;13.17;92.99
13713;DHT22;6928;50.546;7.120;2023-05-10T00:55:15;13.32;92.94
13713;DHT22;6928;50.546;7.120;2023-05-10T00:57:42;13.35;92.41
13713;DHT22;6928;50.546;7.120;2023-05-10T01:00:11;13.30;93.32
13713;DHT22;6928;50.546;7.120;2023-05-10T01:02:43;13.32;93.31
13713;DHT22;6928;50.546;7.120;2023-05-10T01:05:11;13.28;93.38
13713;DHT22;6928;50.546;7.120;2023-05-10T01:07:38;13.28;92.93
13713;DHT22;6928;50.546;7.120;2023-05-10T01:10:07;13.45;92.63
13713;DHT22;6928;50.546;7.120;2023-05-10T01:12:38;13.35;92.68
13713;DHT22;6928;50.546;7.120;2023-05-10T01:15:07;13.28;92.93
13713;DHT22;6928;50.546;7.120;2023-05-10T01:17:35;13.49;92.94
13713;DHT22;6928;50.546;7.120;2023-05-10T01:20:02;13.45;92.60
13713;DHT22;6928;50.546;7.120;2023-05-10T01:22:50;13.35;92.98
13713;DHT22;6928;50.546;7.120;2023-05-10T01:25:36;13.51;92.81
13713;DHT22;6928;50.546;7.120;2023-05-10T01:28:44;13.56;92.78
13713;DHT22;6928;50.546;7.120;2023-05-10T01:31:34;13.49;92.79
13713;DHT22;6928;50.546;7.120;2023-05-10T01:34:11;13.55;92.63
13713;DHT22;6928;50.546;7.120;2023-05-10T01:36:45;13.45;92.63
13713;DHT22;6928;50.546;7.120;2023-05-10T01:39:19;13.45;92.78
13713;DHT22;6928;50.546;7.120;2023-05-10T01:41:52;13.38;92.99
13713;DHT22;6928;50.546;7.120;2023-05-10T01:44:29;13.46;92.77
13713;DHT22;6928;50.546;7.120;2023-05-10T01:47:04;13.51;92.73
13713;DHT22;6928;50.546;7.120;2023-05-10T01:49:39;13.56;92.81
13713;DHT22;6928;50.546;7.120;2023-05-10T01:52:10;13.18;93.13
13713;DHT22;6928;50.546;7.120;2023-05-10T01:54:40;13.15;94.67
13713;DHT22;6928;50.546;7.120;2023-05-10T01:57:09;13.03;94.42
13713;DHT22;6928;50.546;7.120;2023-05-10T01:59:39;13.27;93.87
13713;DHT22;6928;50.546;7.120;2023-05-10T02:02:07;13.00;94.52
13713;DHT22;6928;50.546;7.120;2023-05-10T02:04:39;12.92;94.94
13713;DHT22;6928;50.546;7.120;2023-05-10T02:07:06;12.97;94.89
13713;DHT22;6928;50.546;7.120;2023-05-10T02:09:35;12.94;95.05
13713;DHT22;6928;50.546;7.120;2023-05-10T02:12:04;13.02;94.79
13713;DHT22;6928;50.546;7.120;2023-05-10T02:14:35;13.18;94.65
13713;DHT22;6928;50.546;7.120;2023-05-10T02:17:04;13.11;94.53
13713;DHT22;6928;50.546;7.120;2023-05-10T02:19:32;13.13;94.26
13713;DHT22;6928;50.546;7.120;2023-05-10T02:22:02;13.06;94.12
13713;DHT22;6928;50.546;7.120;2023-05-10T02:24:30;13.10;94.52
13713;DHT22;6928;50.546;7.120;2023-05-10T02:26:59;13.17;94.17
13713;DHT22;6928;50.546;7.120;2023-05-10T02:29:27;13.17;93.78
13713;DHT22;6928;50.546;7.120;2023-05-10T02:31:56;13.15;94.26
13713;DHT22;6928;50.546;7.120;2023-05-10T02:34:25;13.32;94.06
13713;DHT22;6928;50.546;7.120;2023-05-10T02:36:53;13.42;93.66
13713;DHT22;6928;50.546;7.120;2023-05-10T02:39:22;13.39;93.42
13713;DHT22;6928;50.546;7.120;2023-05-10T02:41:51;13.41;93.35
13713;DHT22;6928;50.546;7.120;2023-05-10T02:44:19;13.27;93.44
13713;DHT22;6928;50.546;7.120;2023-05-10T02:46:47;13.45;93.36
13713;DHT22;6928;50.546;7.120;2023-05-10T02:49:15;13.39;93.23
13713;DHT22;6928;50.546;7.120;2023-05-10T02:51:47;13.49;93.00
13713;DHT22;6928;50.546;7.120;2023-05-10T02:54:20;13.39;93.31
13713;DHT22;6928;50.546;7.120;2023-05-10T02:56:53;13.48;93.28
13713;DHT22;6928;50.546;7.120;2023-05-10T02:59:21;13.49;93.21
13713;DHT22;6928;50.546;7.120;2023-05-10T03:01:48;13.49;93.44
13713;DHT22;6928;50.546;7.120;2023-05-10T03:04:15;13.56;93.84
13713;DHT22;6928;50.546;7.120;2023-05-10T03:06:42;13.48;93.80
13713;DHT22;6928;50.546;7.120;2023-05-10T03:09:09;13.08;94.57
13713;DHT22;6928;50.546;7.120;2023-05-10T03:11:50;13.02;95.28
13713;DHT22;6928;50.546;7.120;2023-05-10T03:14:33;13.03;95.51
13713;DHT22;6928;50.546;7.120;2023-05-10T03:17:10;13.04;95.51
13713;DHT22;6928;50.546;7.120;2023-05-10T03:19:45;12.93;95.52
13713;DHT22;6928;50.546;7.120;2023-05-10T03:22:21;12.96;95.71
13713;DHT22;6928;50.546;7.120;2023-05-10T03:24:51;12.88;95.56
13713;DHT22;6928;50.546;7.120;2023-05-10T03:27:22;12.97;95.70
13713;DHT22;6928;50.546;7.120;2023-05-10T03:29:51;12.97;95.53
13713;DHT22;6928;50.546;7.120;2023-05-10T03:32:19;12.90;95.49
13713;DHT22;6928;50.546;7.120;2023-05-10T03:34:45;12.92;95.91
13713;DHT22;6928;50.546;7.120;2023-05-10T03:37:12;12.92;95.98
13713;DHT22;6928;50.546;7.120;2023-05-10T03:39:39;12.84;95.95
13713;DHT22;6928;50.546;7.120;2023-05-10T03:42:06;12.84;96.06
13713;DHT22;6928;50.546;7.120;2023-05-10T03:44:34;12.93;96.10
13713;DHT22;6928;50.546;7.120;2023-05-10T03:47:00;12.93;95.95
13713;DHT22;6928;50.546;7.120;2023-05-10T03:49:27;12.96;95.89
13713;DHT22;6928;50.546;7.120;2023-05-10T03:51:54;13.21;95.57
13713;DHT22;6928;50.546;7.120;2023-05-10T03:54:21;13.10;95.28
13713;DHT22;6928;50.546;7.120;2023-05-10T03:56:47;13.18;95.30
13713;DHT22;6928;50.546;7.120;2023-05-10T03:59:14;13.03;95.07
13713;DHT22;6928;50.546;7.120;2023-05-10T04:01:42;13.13;95.18
13713;DHT22;6928;50.546;7.120;2023-05-10T04:04:09;13.06;95.55
13713;DHT22;6928;50.546;7.120;2023-05-10T04:06:37;13.08;95.40
13713;DHT22;6928;50.546;7.120;2023-05-10T04:09:04;13.23;95.29
13713;DHT22;6928;50.546;7.120;2023-05-10T04:11:30;13.34;95.03
13713;DHT22;6928;50.546;7.120;2023-05-10T04:13:57;13.14;95.38
13713;DHT22;6928;50.546;7.120;2023-05-10T04:16:24;13.28;95.37
13713;DHT22;6928;50.546;7.120;2023-05-10T04:18:52;13.21;95.17
13713;DHT22;6928;50.546;7.120;2023-05-10T04:21:19;13.15;95.37
13713;DHT22;6928;50.546;7.120;2023-05-10T04:23:46;13.24;95.18
13713;DHT22;6928;50.546;7.120;2023-05-10T04:26:12;13.20;94.92
13713;DHT22;6928;50.546;7.120;2023-05-10T04:28:39;13.18;95.11
13713;DHT22;6928;50.546;7.120;2023-05-10T04:31:08;13.15;95.14
13713;DHT22;6928;50.546;7.120;2023-05-10T04:33:36;13.24;95.04
13713;DHT22;6928;50.546;7.120;2023-05-10T04:36:05;13.25;94.95
13713;DHT22;6928;50.546;7.120;2023-05-10T04:38:32;13.17;94.82
13713;DHT22;6928;50.546;7.120;2023-05-10T04:41:05;13.24;94.59
13713;DHT22;6928;50.546;7.120;2023-05-10T04:43:32;13.24;94.83
13713;DHT22;6928;50.546;7.120;2023-05-10T04:46:00;13.17;94.89
13713;DHT22;6928;50.546;7.120;2023-05-10T04:48:27;13.07;94.96
13713;DHT22;6928;50.546;7.120;2023-05-10T04:50:54;13.06;95.37
13713;DHT22;6928;50.546;7.120;2023-05-10T04:53:22;13.07;95.44
13713;DHT22;6928;50.546;7.120;2023-05-10T04:55:48;13.06;95.33
13713;DHT22;6928;50.546;7.120;2023-05-10T04:58:15;13.15;95.34
13713;DHT22;6928;50.546;7.120;2023-05-10T05:00:42;13.30;95.18
13713;DHT22;6928;50.546;7.120;2023-05-10T05:03:09;13.25;95.26
13713;DHT22;6928;50.546;7.120;2023-05-10T05:05:37;13.25;95.32
13713;DHT22;6928;50.546;7.120;2023-05-10T05:08:04;13.41;95.19
13713;DHT22;6928;50.546;7.120;2023-05-10T05:10:32;13.24;95.32
13713;DHT22;6928;50.546;7.120;2023-05-10T05:12:59;13.25;95.57
13713;DHT22;6928;50.546;7.120;2023-05-10T05:15:26;13.32;95.80
13713;DHT22;6928;50.546;7.120;2023-05-10T05:17:53;13.34;95.38
13713;DHT22;6928;50.546;7.120;2023-05-10T05:20:20;13.36;95.63
13713;DHT22;6928;50.546;7.120;2023-05-10T05:22:46;13.28;95.51
13713;DHT22;6928;50.546;7.120;2023-05-10T05:25:13;13.31;95.61
13713;DHT22;6928;50.546;7.120;2023-05-10T05:27:41;13.30;95.33
13713;DHT22;6928;50.546;7.120;2023-05-10T05:30:09;13.48;95.34
13713;DHT22;6928;50.546;7.120;2023-05-10T05:32:36;13.41;94.51
13713;DHT22;6928;50.546;7.120;2023-05-10T05:35:04;13.51;94.50
13713;DHT22;6928;50.546;7.120;2023-05-10T05:37:31;13.44;94.05
13713;DHT22;6928;50.546;7.120;2023-05-10T05:39:58;13.65;94.36
13713;DHT22;6928;50.546;7.120;2023-05-10T05:42:27;13.72;94.18
13713;DHT22;6928;50.546;7.120;2023-05-10T05:44:55;13.73;93.82
13713;DHT22;6928;50.546;7.120;2023-05-10T05:47:22;13.72;93.62
13713;DHT22;6928;50.546;7.120;2023-05-10T05:49:49;13.76;94.24
13713;DHT22;6928;50.546;7.120;2023-05-10T05:52:16;13.75;94.01
13713;DHT22;6928;50.546;7.120;2023-05-10T05:54:43;13.86;93.83
13713;DHT22;6928;50.546;7.120;2023-05-10T05:57:09;13.86;93.55
13713;DHT22;6928;50.546;7.120;2023-05-10T05:59:37;13.66;92.38
13713;DHT22;6928;50.546;7.120;2023-05-10T06:02:08;13.72;92.47
13713;DHT22;6928;50.546;7.120;2023-05-10T06:04:35;13.75;92.50
13713;DHT22;6928;50.546;7.120;2023-05-10T06:07:01;13.92;92.39
13713;DHT22;6928;50.546;7.120;2023-05-10T06:09:28;13.97;92.10
13713;DHT22;6928;50.546;7.120;2023-05-10T06:11:55;14.04;91.73
13713;DHT22;6928;50.546;7.120;2023-05-10T06:14:22;14.03;91.46
13713;DHT22;6928;50.546;7.120;2023-05-10T06:16:49;14.12;91.70
13713;DHT22;6928;50.546;7.120;2023-05-10T06:19:17;14.10;91.24
13713;DHT22;6928;50.546;7.120;2023-05-10T06:21:44;14.00;91.17
13713;DHT22;6928;50.546;7.120;2023-05-10T06:24:11;14.16;90.83
13713;DHT22;6928;50.546;7.120;2023-05-10T06:26:37;14.17;91.25
13713;DHT22;6928;50.546;7.120;2023-05-10T06:29:04;14.24;92.04
13713;DHT22;6928;50.546;7.120;2023-05-10T06:31:31;14.21;90.26
13713;DHT22;6928;50.546;7.120;2023-05-10T06:34:00;14.31;90.96
13713;DHT22;6928;50.546;7.120;2023-05-10T06:36:28;14.24;89.85
13713;DHT22;6928;50.546;7.120;2023-05-10T06:38:56;14.30;89.84
13713;DHT22;6928;50.546;7.120;2023-05-10T06:41:22;14.25;90.42
13713;DHT22;6928;50.546;7.120;2023-05-10T06:43:49;14.10;89.13
13713;DHT22;6928;50.546;7.120;2023-05-10T06:46:16;14.28;90.24
13713;DHT22;6928;50.546;7.120;2023-05-10T06:48:43;14.30;89.41
13713;DHT22;6928;50.546;7.120;2023-05-10T06:51:10;14.10;88.39
13713;DHT22;6928;50.546;7.120;2023-05-10T06:53:38;14.21;89.21
13713;DHT22;6928;50.546;7.120;2023-05-10T06:56:05;14.34;89.78
13713;DHT22;6928;50.546;7.120;2023-05-10T06:58:32;14.37;89.12
13713;DHT22;6928;50.546;7.120;2023-05-10T07:01:02;14.40;88.58
13713;DHT22;6928;50.546;7.120;2023-05-10T07:03:29;14.37;88.10
13713;DHT22;6928;50.546;7.120;2023-05-10T07:06:01;14.45;87.84
13713;DHT22;6928;50.546;7.120;2023-05-10T07:08:29;14.40;88.88
13713;DHT22;6928;50.546;7.120;2023-05-10T07:11:01;14.44;87.73
13713;DHT22;6928;50.546;7.120;2023-05-10T07:13:29;14.48;88.44
13713;DHT22;6928;50.546;7.120;2023-05-10T07:15:57;14.35;87.60
13713;DHT22;6928;50.546;7.120;2023-05-10T07:18:24;14.34;87.41
13713;DHT22;6928;50.546;7.120;2023-05-10T07:20:50;14.37;87.97
13713;DHT22;6928;50.546;7.120;2023-05-10T07:23:17;14.45;88.13
13713;DHT22;6928;50.546;7.120;2023-05-10T07:25:45;14.45;87.17
13713;DHT22;6928;50.546;7.120;2023-05-10T07:28:14;14.45;88.72
13713;DHT22;6928;50.546;7.120;2023-05-10T07:30:42;14.55;88.30
13713;DHT22;6928;50.546;7.120;2023-05-10T07:33:09;14.51;87.10
13713;DHT22;6928;50.546;7.120;2023-05-10T07:35:36;14.65;87.21
13713;DHT22;6928;50.546;7.120;2023-05-10T07:38:03;14.61;87.15
13713;DHT22;6928;50.546;7.120;2023-05-10T07:40:30;14.60;87.15
13713;DHT22;6928;50.546;7.120;2023-05-10T07:42:57;14.65;86.63
13713;DHT22;6928;50.546;7.120;2023-05-10T07:45:26;14.65;86.34
13713;DHT22;6928;50.546;7.120;2023-05-10T07:47:53;14.62;86.19
13713;DHT22;6928;50.546;7.120;2023-05-10T07:50:20;14.65;86.07
13713;DHT22;6928;50.546;7.120;2023-05-10T07:52:47;14.64;85.76
13713;DHT22;6928;50.546;7.120;2023-05-10T07:55:14;14.71;86.61
13713;DHT22;6928;50.546;7.120;2023-05-10T07:57:42;14.83;86.41
13713;DHT22;6928;50.546;7.120;2023-05-10T08:00:12;14.81;87.23
13713;DHT22;6928;50.546;7.120;2023-05-10T08:02:40;14.86;86.83
13713;DHT22;6928;50.546;7.120;2023-05-10T08:05:08;14.67;86.22
13713;DHT22;6928;50.546;7.120;2023-05-10T08:07:35;14.64;86.05
13713;DHT22;6928;50.546;7.120;2023-05-10T08:10:01;14.74;86.25
13713;DHT22;6928;50.546;7.120;2023-05-10T08:12:28;14.79;86.94
13713;DHT22;6928;50.546;7.120;2023-05-10T08:14:55;14.81;85.87
13713;DHT22;6928;50.546;7.120;2023-05-10T08:17:22;14.68;85.20
13713;DHT22;6928;50.546;7.120;2023-05-10T08:19:50;14.74;85.72
13713;DHT22;6928;50.546;7.120;2023-05-10T08:22:17;14.81;86.52
13713;DHT22;6928;50.546;7.120;2023-05-10T08:24:43;14.81;85.52
13713;DHT22;6928;50.546;7.120;2023-05-10T08:27:10;14.83;85.40
13713;DHT22;6928;50.546;7.120;2023-05-10T08:29:37;14.78;85.48
13713;DHT22;6928;50.546;7.120;2023-05-10T08:32:04;14.91;85.27
13713;DHT22;6928;50.546;7.120;2023-05-10T08:34:31;14.99;84.28
13713;DHT22;6928;50.546;7.120;2023-05-10T08:36:59;15.04;84.53
13713;DHT22;6928;50.546;7.120;2023-05-10T08:39:26;15.13;84.37
13713;DHT22;6928;50.546;7.120;2023-05-10T08:41:54;15.16;83.71
13713;DHT22;6928;50.546;7.120;2023-05-10T08:44:25;15.17;83.73
13713;DHT22;6928;50.546;7.120;2023-05-10T08:46:53;15.23;83.87
13713;DHT22;6928;50.546;7.120;2023-05-10T08:49:20;15.23;83.15
13713;DHT22;6928;50.546;7.120;2023-05-10T08:51:53;15.26;83.91
13713;DHT22;6928;50.546;7.120;2023-05-10T08:54:23;15.23;83.42
13713;DHT22;6928;50.546;7.120;2023-05-10T08:56:49;15.27;82.10
13713;DHT22;6928;50.546;7.120;2023-05-10T08:59:16;15.36;82.29
13713;DHT22;6928;50.546;7.120;2023-05-10T09:01:45;15.37;82.32
13713;DHT22;6928;50.546;7.120;2023-05-10T09:04:14;15.24;81.03
13713;DHT22;6928;50.546;7.120;2023-05-10T09:06:41;15.26;80.73
13713;DHT22;6928;50.546;7.120;2023-05-10T09:09:08;15.23;80.75
13713;DHT22;6928;50.546;7.120;2023-05-10T09:11:36;15.33;81.11
13713;DHT22;6928;50.546;7.120;2023-05-10T09:14:03;15.33;81.39
13713;DHT22;6928;50.546;7.120;2023-05-10T09:16:30;15.22;80.89
13713;DHT22;6928;50.546;7.120;2023-05-10T09:18:57;15.24;81.10
13713;DHT22;6928;50.546;7.120;2023-05-10T09:21:24;15.19;81.14
13713;DHT22;6928;50.546;7.120;2023-05-10T09:23:52;15.23;80.54
13713;DHT22;6928;50.546;7.120;2023-05-10T09:26:22;15.19;79.30
13713;DHT22;6928;50.546;7.120;2023-05-10T09:28:55;15.27;79.83
13713;DHT22;6928;50.546;7.120;2023-05-10T09:31:22;15.27;80.64
13713;DHT22;6928;50.546;7.120;2023-05-10T09:33:52;15.29;79.76
13713;DHT22;6928;50.546;7.120;2023-05-10T09:36:19;15.29;81.14
13713;DHT22;6928;50.546;7.120;2023-05-10T09:38:47;15.44;80.53
13713;DHT22;6928;50.546;7.120;2023-05-10T09:41:19;15.49;80.88
13713;DHT22;6928;50.546;7.120;2023-05-10T09:43:46;15.53;80.51
13713;DHT22;6928;50.546;7.120;2023-05-10T09:46:15;15.60;79.86
13713;DHT22;6928;50.546;7.120;2023-05-10T09:48:45;15.62;82.54
13713;DHT22;6928;50.546;7.120;2023-05-10T09:51:19;15.74;80.10
13713;DHT22;6928;50.546;7.120;2023-05-10T09:53:47;15.81;79.75
13713;DHT22;6928;50.546;7.120;2023-05-10T09:56:38;15.84;80.07
13713;DHT22;6928;50.546;7.120;2023-05-10T09:59:11;15.89;80.53
13713;DHT22;6928;50.546;7.120;2023-05-10T10:01:40;15.88;79.48
13713;DHT22;6928;50.546;7.120;2023-05-10T10:04:09;15.98;79.61
13713;DHT22;6928;50.546;7.120;2023-05-10T10:06:37;15.89;81.26
13713;DHT22;6928;50.546;7.120;2023-05-10T10:09:05;15.91;81.43
13713;DHT22;6928;50.546;7.120;2023-05-10T10:11:34;15.79;80.82
13713;DHT22;6928;50.546;7.120;2023-05-10T10:14:01;15.85;81.44
13713;DHT22;6928;50.546;7.120;2023-05-10T10:16:28;15.79;81.92
13713;DHT22;6928;50.546;7.120;2023-05-10T10:18:57;15.93;81.27
13713;DHT22;6928;50.546;7.120;2023-05-10T10:21:24;15.85;81.93
13713;DHT22;6928;50.546;7.120;2023-05-10T10:23:51;15.86;79.72
13713;DHT22;6928;50.546;7.120;2023-05-10T10:26:19;15.86;81.27
13713;DHT22;6928;50.546;7.120;2023-05-10T10:28:53;15.82;81.54
13713;DHT22;6928;50.546;7.120;2023-05-10T10:31:31;15.57;81.87
13713;DHT22;6928;50.546;7.120;2023-05-10T10:34:06;15.55;82.89
13713;DHT22;6928;50.546;7.120;2023-05-10T10:36:40;15.51;83.58
13713;DHT22;6928;50.546;7.120;2023-05-10T10:39:10;15.47;83.41
13713;DHT22;6928;50.546;7.120;2023-05-10T10:41:39;15.33;81.54
13713;DHT22;6928;50.546;7.120;2023-05-10T10:44:36;15.43;82.07
13713;DHT22;6928;50.546;7.120;2023-05-10T10:47:23;15.44;81.04
13713;DHT22;6928;50.546;7.120;2023-05-10T10:50:01;15.43;80.76
13713;DHT22;6928;50.546;7.120;2023-05-10T10:52:31;15.46;80.61
13713;DHT22;6928;50.546;7.120;2023-05-10T10:55:02;15.50;80.65
13713;DHT22;6928;50.546;7.120;2023-05-10T10:57:32;15.50;81.53
13713;DHT22;6928;50.546;7.120;2023-05-10T11:00:34;15.54;81.04
13713;DHT22;6928;50.546;7.120;2023-05-10T11:03:05;15.57;81.03
13713;DHT22;6928;50.546;7.120;2023-05-10T11:05:39;15.55;81.17
13713;DHT22;6928;50.546;7.120;2023-05-10T11:08:13;15.60;81.95
13713;DHT22;6928;50.546;7.120;2023-05-10T11:10:49;15.62;81.75
13713;DHT22;6928;50.546;7.120;2023-05-10T11:13:27;15.65;81.38
13713;DHT22;6928;50.546;7.120;2023-05-10T11:15:56;15.68;81.54
13713;DHT22;6928;50.546;7.120;2023-05-10T11:18:25;15.67;81.76
13713;DHT22;6928;50.546;7.120;2023-05-10T11:20:57;15.79;81.93
13713;DHT22;6928;50.546;7.120;2023-05-10T11:23:30;15.95;82.03
13713;DHT22;6928;50.546;7.120;2023-05-10T11:25:58;15.91;81.64
13713;DHT22;6928;50.546;7.120;2023-05-10T11:28:26;15.89;81.94
13713;DHT22;6928;50.546;7.120;2023-05-10T11:30:54;16.01;82.32
13713;DHT22;6928;50.546;7.120;2023-05-10T11:33:21;16.11;81.49
13713;DHT22;6928;50.546;7.120;2023-05-10T11:35:48;16.19;81.23
13713;DHT22;6928;50.546;7.120;2023-05-10T11:38:17;16.23;79.16
13713;DHT22;6928;50.546;7.120;2023-05-10T11:40:43;16.23;76.81
13713;DHT22;6928;50.546;7.120;2023-05-10T11:43:10;16.32;76.77
13713;DHT22;6928;50.546;7.120;2023-05-10T11:45:39;16.40;77.41
13713;DHT22;6928;50.546;7.120;2023-05-10T11:48:06;16.47;76.08
13713;DHT22;6928;50.546;7.120;2023-05-10T11:50:33;16.47;76.70
13713;DHT22;6928;50.546;7.120;2023-05-10T11:53:00;16.42;75.74
13713;DHT22;6928;50.546;7.120;2023-05-10T11:55:28;16.68;76.09
13713;DHT22;6928;50.546;7.120;2023-05-10T11:58:01;16.71;76.07
13713;DHT22;6928;50.546;7.120;2023-05-10T12:00:29;16.70;75.03
13713;DHT22;6928;50.546;7.120;2023-05-10T12:02:56;16.75;75.32
13713;DHT22;6928;50.546;7.120;2023-05-10T12:05:23;16.70;75.21
13713;DHT22;6928;50.546;7.120;2023-05-10T12:07:50;16.72;77.48
13713;DHT22;6928;50.546;7.120;2023-05-10T12:10:26;16.56;76.75
13713;DHT22;6928;50.546;7.120;2023-05-10T12:12:56;16.51;76.75
13713;DHT22;6928;50.546;7.120;2023-05-10T12:15:24;16.67;77.34
13713;DHT22;6928;50.546;7.120;2023-05-10T12:17:53;16.36;77.02
13713;DHT22;6928;50.546;7.120;2023-05-10T12:20:22;16.47;78.26
13713;DHT22;6928;50.546;7.120;2023-05-10T12:22:57;16.26;78.68
13713;DHT22;6928;50.546;7.120;2023-05-10T12:25:31;16.30;79.26
13713;DHT22;6928;50.546;7.120;2023-05-10T12:28:02;16.28;79.42
13713;DHT22;6928;50.546;7.120;2023-05-10T12:30:31;16.26;79.91
13713;DHT22;6928;50.546;7.120;2023-05-10T12:33:00;16.22;79.47
13713;DHT22;6928;50.546;7.120;2023-05-10T12:35:30;16.23;79.71
13713;DHT22;6928;50.546;7.120;2023-05-10T12:37:57;16.25;79.19
13713;DHT22;6928;50.546;7.120;2023-05-10T12:40:24;16.16;79.51
13713;DHT22;6928;50.546;7.120;2023-05-10T12:42:51;16.22;80.28
13713;DHT22;6928;50.546;7.120;2023-05-10T12:45:20;16.23;81.01
13713;DHT22;6928;50.546;7.120;2023-05-10T12:47:48;16.29;81.29
13713;DHT22;6928;50.546;7.120;2023-05-10T12:50:14;16.36;82.13
13713;DHT22;6928;50.546;7.120;2023-05-10T12:52:41;16.32;81.82
13713;DHT22;6928;50.546;7.120;2023-05-10T12:55:08;16.32;81.54
13713;DHT22;6928;50.546;7.120;2023-05-10T12:57:37;16.28;82.24
13713;DHT22;6928;50.546;7.120;2023-05-10T13:00:06;16.09;81.25
13713;DHT22;6928;50.546;7.120;2023-05-10T13:02:34;16.16;82.58
13713;DHT22;6928;50.546;7.120;2023-05-10T13:05:01;16.26;83.15
13713;DHT22;6928;50.546;7.120;2023-05-10T13:07:33;15.99;82.12
13713;DHT22;6928;50.546;7.120;2023-05-10T13:10:01;15.99;81.87
13713;DHT22;6928;50.546;7.120;2023-05-10T13:12:28;15.86;81.98
13713;DHT22;6928;50.546;7.120;2023-05-10T13:14:55;15.78;81.99
13713;DHT22;6928;50.546;7.120;2023-05-10T13:17:22;15.78;82.26
13713;DHT22;6928;50.546;7.120;2023-05-10T13:19:53;15.85;82.31
13713;DHT22;6928;50.546;7.120;2023-05-10T13:22:20;15.86;82.10
13713;DHT22;6928;50.546;7.120;2023-05-10T13:24:49;15.79;82.35
13713;DHT22;6928;50.546;7.120;2023-05-10T13:27:19;15.61;84.08
13713;DHT22;6928;50.546;7.120;2023-05-10T13:29:49;15.49;84.44
13713;DHT22;6928;50.546;7.120;2023-05-10T13:32:16;15.39;85.88
13713;DHT22;6928;50.546;7.120;2023-05-10T13:34:43;14.91;87.29
13713;DHT22;6928;50.546;7.120;2023-05-10T13:37:19;14.72;86.45
13713;DHT22;6928;50.546;7.120;2023-05-10T13:39:49;14.12;85.72
13713;DHT22;6928;50.546;7.120;2023-05-10T13:42:17;14.13;87.69
13713;DHT22;6928;50.546;7.120;2023-05-10T13:44:44;14.13;87.90
13713;DHT22;6928;50.546;7.120;2023-05-10T13:47:13;13.48;88.48
13713;DHT22;6928;50.546;7.120;2023-05-10T13:49:40;13.67;88.75
13713;DHT22;6928;50.546;7.120;2023-05-10T13:52:10;14.02;88.27
13713;DHT22;6928;50.546;7.120;2023-05-10T13:54:39;14.02;88.28
13713;DHT22;6928;50.546;7.120;2023-05-10T13:57:06;13.73;88.02
13713;DHT22;6928;50.546;7.120;2023-05-10T13:59:33;13.90;89.13
13713;DHT22;6928;50.546;7.120;2023-05-10T14:02:00;14.00;89.25
13713;DHT22;6928;50.546;7.120;2023-05-10T14:04:28;13.92;88.09
13713;DHT22;6928;50.546;7.120;2023-05-10T14:06:55;14.12;89.43
13713;DHT22;6928;50.546;7.120;2023-05-10T14:09:22;14.33;88.17
13713;DHT22;6928;50.546;7.120;2023-05-10T14:11:53;13.96;88.12
13713;DHT22;6928;50.546;7.120;2023-05-10T14:14:21;14.14;87.90
13713;DHT22;6928;50.546;7.120;2023-05-10T14:16:48;14.51;87.76
13713;DHT22;6928;50.546;7.120;2023-05-10T14:19:14;14.40;85.94
13713;DHT22;6928;50.546;7.120;2023-05-10T14:21:41;14.44;88.26
13713;DHT22;6928;50.546;7.120;2023-05-10T14:24:08;14.17;86.13
13713;DHT22;6928;50.546;7.120;2023-05-10T14:26:35;14.54;86.99
13713;DHT22;6928;50.546;7.120;2023-05-10T14:29:03;14.18;84.52
13713;DHT22;6928;50.546;7.120;2023-05-10T14:31:30;14.18;85.85
13713;DHT22;6928;50.546;7.120;2023-05-10T14:33:57;14.20;84.70
13713;DHT22;6928;50.546;7.120;2023-05-10T14:36:24;14.27;86.91
13713;DHT22;6928;50.546;7.120;2023-05-10T14:38:51;14.09;85.92
13713;DHT22;6928;50.546;7.120;2023-05-10T14:41:18;14.07;85.87
13713;DHT22;6928;50.546;7.120;2023-05-10T14:43:46;14.12;87.25
13713;DHT22;6928;50.546;7.120;2023-05-10T14:46:14;14.07;88.11
13713;DHT22;6928;50.546;7.120;2023-05-10T14:48:41;14.28;88.56
13713;DHT22;6928;50.546;7.120;2023-05-10T14:51:08;14.44;88.76
13713;DHT22;6928;50.546;7.120;2023-05-10T14:53:34;14.53;89.01
13713;DHT22;6928;50.546;7.120;2023-05-10T14:56:01;14.57;89.16
13713;DHT22;6928;50.546;7.120;2023-05-10T14:58:28;14.45;89.78
13713;DHT22;6928;50.546;7.120;2023-05-10T15:00:55;14.48;89.71
13713;DHT22;6928;50.546;7.120;2023-05-10T15:03:24;14.35;89.80
13713;DHT22;6928;50.546;7.120;2023-05-10T15:05:51;14.23;90.42
13713;DHT22;6928;50.546;7.120;2023-05-10T15:08:21;14.25;90.42
13713;DHT22;6928;50.546;7.120;2023-05-10T15:10:49;14.10;90.27
13713;DHT22;6928;50.546;7.120;2023-05-10T15:13:15;14.13;89.80
13713;DHT22;6928;50.546;7.120;2023-05-10T15:15:42;14.12;89.56
13713;DHT22;6928;50.546;7.120;2023-05-10T15:18:09;14.14;89.91
13713;DHT22;6928;50.546;7.120;2023-05-10T15:20:37;14.17;89.29
13713;DHT22;6928;50.546;7.120;2023-05-10T15:23:04;14.38;89.49
13713;DHT22;6928;50.546;7.120;2023-05-10T15:25:31;14.34;89.35
13713;DHT22;6928;50.546;7.120;2023-05-10T15:28:00;14.17;88.79
13713;DHT22;6928;50.546;7.120;2023-05-10T15:30:27;14.28;88.27
13713;DHT22;6928;50.546;7.120;2023-05-10T15:32:54;14.27;89.49
13713;DHT22;6928;50.546;7.120;2023-05-10T15:35:21;14.28;89.59
13713;DHT22;6928;50.546;7.120;2023-05-10T15:37:49;14.37;89.39
13713;DHT22;6928;50.546;7.120;2023-05-10T15:40:17;14.37;88.76
13713;DHT22;6928;50.546;7.120;2023-05-10T15:42:44;14.24;89.68
13713;DHT22;6928;50.546;7.120;2023-05-10T15:45:11;14.28;89.87
13713;DHT22;6928;50.546;7.120;2023-05-10T15:47:37;14.25;89.67
13713;DHT22;6928;50.546;7.120;2023-05-10T15:50:08;14.37;90.15
13713;DHT22;6928;50.546;7.120;2023-05-10T15:52:35;14.37;90.34
13713;DHT22;6928;50.546;7.120;2023-05-10T15:55:05;14.40;90.96